sensor_id;sensor_type;location;lat;lon;timestamp;temperature;humidity
10536;DHT22;5316;49.538;8.352;2023-05-27T00:07:32;15.60;1.00
10536;DHT22;5316;49.538;8.352;2023-05-27T00:10:29;15.50;1.00
10536;DHT22;5316;49.538;8.352;2023-05-27T00:20:47;15.30;1.00
10536;DHT22;5316;49.538;8.352;2023-05-27T00:27:11;15.10;1.00
10536;DHT22;5316;49.538;8.352;2023-05-27T00:33:46;15.10;1.00
10536;DHT22;5316;49.538;8.352;2023-05-27T00:40:33;15.20;1.00
10536;DHT22;5316;49.538;8.352;2023-05-27T00:43:22;15.20;1.00
10536;DHT22;5316;49.538;8.352;2023-05-27T00:46:43;15.10;1.00
10536;DHT22;5316;49.538;8.352;2023-05-27T00:53:13;15.00;86.30
10536;DHT22;5316;49.538;8.352;2023-05-27T00:55:40;14.80;99.90
10536;DHT22;5316;49.538;8.352;2023-05-27T00:58:07;14.80;99.90
10536;DHT22;5316;49.538;8.352;2023-05-27T01:00:34;14.70;99.90
10536;DHT22;5316;49.538;8.352;2023-05-27T01:03:05;14.60;99.90
10536;DHT22;5316;49.538;8.352;2023-05-27T01:05:33;14.60;99.90
10536;DHT22;5316;49.538;8.352;2023-05-27T01:08:10;14.50;99.90
10536;DHT22;5316;49.538;8.352;2023-05-27T01:10:46;14.50;99.90
10536;DHT22;5316;49.538;8.352;2023-05-27T01:13:18;14.50;99.90
10536;DHT22;5316;49.538;8.352;2023-05-27T01:15:51;14.40;1.00
10536;DHT22;5316;49.538;8.352;2023-05-27T01:18:20;14.30;1.00
10536;DHT22;5316;49.538;8.352;2023-05-27T01:20:51;14.30;1.00
10536;DHT22;5316;49.538;8.352;2023-05-27T01:26:42;14.20;1.00
10536;DHT22;5316;49.538;8.352;2023-05-27T01:29:09;14.20;1.00
10536;DHT22;5316;49.538;8.352;2023-05-27T01:31:43;14.20;1.00
10536;DHT22;5316;49.538;8.352;2023-05-27T01:34:18;14.00;1.00
10536;DHT22;5316;49.538;8.352;2023-05-27T01:36:52;14.00;1.00
10536;DHT22;5316;49.538;8.352;2023-05-27T01:39:24;14.00;1.00
10536;DHT22;5316;49.538;8.352;2023-05-27T01:41:53;13.90;35.70
10536;DHT22;5316;49.538;8.352;2023-05-27T01:44:21;13.90;33.00
10536;DHT22;5316;49.538;8.352;2023-05-27T01:46:49;13.90;69.70
10536;DHT22;5316;49.538;8.352;2023-05-27T01:49:16;13.80;99.90
10536;DHT22;5316;49.538;8.352;2023-05-27T01:51:43;13.80;99.90
10536;DHT22;5316;49.538;8.352;2023-05-27T01:54:10;13.80;99.90
10536;DHT22;5316;49.538;8.352;2023-05-27T01:56:37;13.80;99.90
10536;DHT22;5316;49.538;8.352;2023-05-27T01:59:06;13.70;99.90
10536;DHT22;5316;49.538;8.352;2023-05-27T02:01:33;13.60;99.90
10536;DHT22;5316;49.538;8.352;2023-05-27T02:04:00;13.60;99.90
10536;DHT22;5316;49.538;8.352;2023-05-27T02:06:27;13.60;99.90
10536;DHT22;5316;49.538;8.352;2023-05-27T02:08:54;13.60;99.90
10536;DHT22;5316;49.538;8.352;2023-05-27T02:11:21;13.50;99.90
10536;DHT22;5316;49.538;8.352;2023-05-27T02:13:47;13.60;99.90
10536;DHT22;5316;49.538;8.352;2023-05-27T02:16:16;13.50;99.90
10536;DHT22;5316;49.538;8.352;2023-05-27T02:18:43;13.40;99.90
10536;DHT22;5316;49.538;8.352;2023-05-27T02:21:10;13.40;99.90
10536;DHT22;5316;49.538;8.352;2023-05-27T02:23:37;13.50;99.90
10536;DHT22;5316;49.538;8.352;2023-05-27T02:26:04;13.40;99.90
10536;DHT22;5316;49.538;8.352;2023-05-27T02:28:31;13.40;99.90
10536;DHT22;5316;49.538;8.352;2023-05-27T02:31:07;13.30;1.00
10536;DHT22;5316;49.538;8.352;2023-05-27T02:33:37;13.30;99.90
10536;DHT22;5316;49.538;8.352;2023-05-27T02:36:10;13.40;1.00
10536;DHT22;5316;49.538;8.352;2023-05-27T02:38:37;13.40;1.00
10536;DHT22;5316;49.538;8.352;2023-05-27T02:41:04;13.30;1.00
10536;DHT22;5316;49.538;8.352;2023-05-27T02:43:31;13.30;1.00
10536;DHT22;5316;49.538;8.352;2023-05-27T02:45:58;13.30;1.00
10536;DHT22;5316;49.538;8.352;2023-05-27T02:48:25;13.20;1.00
10536;DHT22;5316;49.538;8.352;2023-05-27T02:50:53;13.20;1.00
10536;DHT22;5316;49.538;8.352;2023-05-27T02:53:20;13.20;1.00
10536;DHT22;5316;49.538;8.352;2023-05-27T02:55:47;13.10;1.00
10536;DHT22;5316;49.538;8.352;2023-05-27T02:58:14;13.10;1.00
10536;DHT22;5316;49.538;8.352;2023-05-27T03:00:41;13.00;99.90
10536;DHT22;5316;49.538;8.352;2023-05-27T03:03:08;12.90;99.90
10536;DHT22;5316;49.538;8.352;2023-05-27T03:05:35;12.90;99.90
10536;DHT22;5316;49.538;8.352;2023-05-27T03:08:03;12.80;99.90
10536;DHT22;5316;49.538;8.352;2023-05-27T03:10:31;12.80;99.90
10536;DHT22;5316;49.538;8.352;2023-05-27T03:12:58;12.80;99.90
10536;DHT22;5316;49.538;8.352;2023-05-27T03:15:25;12.80;99.90
10536;DHT22;5316;49.538;8.352;2023-05-27T03:17:55;12.80;99.90
10536;DHT22;5316;49.538;8.352;2023-05-27T03:20:22;12.70;1.00
10536;DHT22;5316;49.538;8.352;2023-05-27T03:22:49;12.70;1.00
10536;DHT22;5316;49.538;8.352;2023-05-27T03:25:18;12.70;1.00
10536;DHT22;5316;49.538;8.352;2023-05-27T03:27:45;12.80;1.00
10536;DHT22;5316;49.538;8.352;2023-05-27T03:30:12;12.80;1.00
10536;DHT22;5316;49.538;8.352;2023-05-27T03:32:39;12.80;1.00
10536;DHT22;5316;49.538;8.352;2023-05-27T03:35:06;12.70;1.00
10536;DHT22;5316;49.538;8.352;2023-05-27T03:37:33;12.70;1.00
10536;DHT22;5316;49.538;8.352;2023-05-27T03:40:00;12.70;1.00
10536;DHT22;5316;49.538;8.352;2023-05-27T03:42:30;12.60;1.00
10536;DHT22;5316;49.538;8.352;2023-05-27T03:44:56;12.70;1.00
10536;DHT22;5316;49.538;8.352;2023-05-27T03:47:26;12.60;1.00
10536;DHT22;5316;49.538;8.352;2023-05-27T03:49:53;12.60;35.30
10536;DHT22;5316;49.538;8.352;2023-05-27T03:52:19;12.60;28.10
10536;DHT22;5316;49.538;8.352;2023-05-27T03:54:46;12.60;9.50
10536;DHT22;5316;49.538;8.352;2023-05-27T03:57:15;12.60;1.00
10536;DHT22;5316;49.538;8.352;2023-05-27T03:59:44;12.60;1.00
10536;DHT22;5316;49.538;8.352;2023-05-27T04:02:11;12.60;57.60
10536;DHT22;5316;49.538;8.352;2023-05-27T04:04:38;12.40;99.90
10536;DHT22;5316;49.538;8.352;2023-05-27T04:07:05;12.40;99.90
10536;DHT22;5316;49.538;8.352;2023-05-27T04:09:33;12.40;99.90
10536;DHT22;5316;49.538;8.352;2023-05-27T04:12:00;12.40;99.90
10536;DHT22;5316;49.538;8.352;2023-05-27T04:14:27;12.40;1.00
10536;DHT22;5316;49.538;8.352;2023-05-27T04:16:55;12.40;99.90
10536;DHT22;5316;49.538;8.352;2023-05-27T04:19:22;12.40;99.90
10536;DHT22;5316;49.538;8.352;2023-05-27T04:21:49;12.40;99.90
10536;DHT22;5316;49.538;8.352;2023-05-27T04:24:16;12.40;99.90
10536;DHT22;5316;49.538;8.352;2023-05-27T04:26:45;12.40;1.00
10536;DHT22;5316;49.538;8.352;2023-05-27T04:29:12;12.40;99.90
10536;DHT22;5316;49.538;8.352;2023-05-27T04:31:41;12.50;99.90
10536;DHT22;5316;49.538;8.352;2023-05-27T04:34:09;12.50;99.90
10536;DHT22;5316;49.538;8.352;2023-05-27T04:36:36;12.50;99.90
10536;DHT22;5316;49.538;8.352;2023-05-27T04:39:03;12.50;99.90
10536;DHT22;5316;49.538;8.352;2023-05-27T04:41:30;12.50;1.00
10536;DHT22;5316;49.538;8.352;2023-05-27T04:43:58;12.50;1.00
10536;DHT22;5316;49.538;8.352;2023-05-27T04:46:29;12.50;99.90
10536;DHT22;5316;49.538;8.352;2023-05-27T04:48:56;12.60;99.90
10536;DHT22;5316;49.538;8.352;2023-05-27T04:51:24;12.60;99.90
10536;DHT22;5316;49.538;8.352;2023-05-27T04:53:52;12.60;99.90
10536;DHT22;5316;49.538;8.352;2023-05-27T04:56:19;12.70;99.90
10536;DHT22;5316;49.538;8.352;2023-05-27T04:58:48;12.80;99.90
10536;DHT22;5316;49.538;8.352;2023-05-27T05:01:15;12.80;99.90
10536;DHT22;5316;49.538;8.352;2023-05-27T05:04:08;12.80;99.90
10536;DHT22;5316;49.538;8.352;2023-05-27T05:10:37;12.90;99.90
10536;DHT22;5316;49.538;8.352;2023-05-27T05:13:05;13.00;99.90
10536;DHT22;5316;49.538;8.352;2023-05-27T05:15:32;13.00;99.90
10536;DHT22;5316;49.538;8.352;2023-05-27T05:18:00;13.00;99.90
10536;DHT22;5316;49.538;8.352;2023-05-27T05:20:27;13.10;99.90
10536;DHT22;5316;49.538;8.352;2023-05-27T05:22:53;13.00;62.30
10536;DHT22;5316;49.538;8.352;2023-05-27T05:25:21;13.10;99.90
10536;DHT22;5316;49.538;8.352;2023-05-27T05:27:51;13.20;1.00
10536;DHT22;5316;49.538;8.352;2023-05-27T05:30:18;13.30;1.00
10536;DHT22;5316;49.538;8.352;2023-05-27T05:32:45;13.30;99.90
10536;DHT22;5316;49.538;8.352;2023-05-27T05:35:12;13.30;99.90
10536;DHT22;5316;49.538;8.352;2023-05-27T05:37:39;13.40;99.90
10536;DHT22;5316;49.538;8.352;2023-05-27T05:40:07;13.40;99.90
10536;DHT22;5316;49.538;8.352;2023-05-27T05:42:35;13.40;99.90
10536;DHT22;5316;49.538;8.352;2023-05-27T05:45:05;13.50;1.00
10536;DHT22;5316;49.538;8.352;2023-05-27T05:47:32;13.50;1.00
10536;DHT22;5316;49.538;8.352;2023-05-27T05:50:02;13.60;1.00
10536;DHT22;5316;49.538;8.352;2023-05-27T05:52:29;13.60;1.00
10536;DHT22;5316;49.538;8.352;2023-05-27T05:54:56;13.60;1.00
10536;DHT22;5316;49.538;8.352;2023-05-27T05:57:23;13.70;1.00
10536;DHT22;5316;49.538;8.352;2023-05-27T05:59:52;13.70;99.90
10536;DHT22;5316;49.538;8.352;2023-05-27T06:02:20;13.80;99.90
10536;DHT22;5316;49.538;8.352;2023-05-27T06:04:47;13.80;99.90
10536;DHT22;5316;49.538;8.352;2023-05-27T06:07:14;13.80;99.90
10536;DHT22;5316;49.538;8.352;2023-05-27T06:09:41;13.80;99.90
10536;DHT22;5316;49.538;8.352;2023-05-27T06:12:09;13.90;99.90
10536;DHT22;5316;49.538;8.352;2023-05-27T06:14:37;14.00;99.90
10536;DHT22;5316;49.538;8.352;2023-05-27T06:17:05;14.00;72.60
10536;DHT22;5316;49.538;8.352;2023-05-27T06:19:34;14.10;22.00
10536;DHT22;5316;49.538;8.352;2023-05-27T06:22:01;14.20;68.40
10536;DHT22;5316;49.538;8.352;2023-05-27T06:24:30;14.30;1.00
10536;DHT22;5316;49.538;8.352;2023-05-27T06:26:57;14.40;1.00
10536;DHT22;5316;49.538;8.352;2023-05-27T06:29:26;14.50;1.00
10536;DHT22;5316;49.538;8.352;2023-05-27T06:32:06;14.70;1.00
10536;DHT22;5316;49.538;8.352;2023-05-27T06:34:38;14.80;1.00
10536;DHT22;5316;49.538;8.352;2023-05-27T06:37:08;14.80;1.00
10536;DHT22;5316;49.538;8.352;2023-05-27T06:39:35;14.90;1.00
10536;DHT22;5316;49.538;8.352;2023-05-27T06:42:05;15.00;1.00
10536;DHT22;5316;49.538;8.352;2023-05-27T06:44:32;14.90;1.00
10536;DHT22;5316;49.538;8.352;2023-05-27T06:46:59;15.00;1.00
10536;DHT22;5316;49.538;8.352;2023-05-27T06:49:27;15.00;1.00
10536;DHT22;5316;49.538;8.352;2023-05-27T06:51:55;15.10;99.90
10536;DHT22;5316;49.538;8.352;2023-05-27T06:54:23;15.10;99.90
10536;DHT22;5316;49.538;8.352;2023-05-27T06:56:50;15.10;1.00
10536;DHT22;5316;49.538;8.352;2023-05-27T06:59:18;15.10;99.90
10536;DHT22;5316;49.538;8.352;2023-05-27T07:01:46;15.20;99.90
10536;DHT22;5316;49.538;8.352;2023-05-27T07:04:13;15.20;99.90
10536;DHT22;5316;49.538;8.352;2023-05-27T07:06:40;15.20;99.90
10536;DHT22;5316;49.538;8.352;2023-05-27T07:09:09;15.30;99.90
10536;DHT22;5316;49.538;8.352;2023-05-27T07:11:36;15.30;99.90
10536;DHT22;5316;49.538;8.352;2023-05-27T07:14:04;15.40;99.90
10536;DHT22;5316;49.538;8.352;2023-05-27T07:16:30;15.50;99.90
10536;DHT22;5316;49.538;8.352;2023-05-27T07:18:57;15.60;99.90
10536;DHT22;5316;49.538;8.352;2023-05-27T07:21:27;15.70;99.90
10536;DHT22;5316;49.538;8.352;2023-05-27T07:23:56;15.80;17.00
10536;DHT22;5316;49.538;8.352;2023-05-27T07:26:25;15.90;30.80
10536;DHT22;5316;49.538;8.352;2023-05-27T07:28:57;16.00;1.00
10536;DHT22;5316;49.538;8.352;2023-05-27T07:31:30;16.10;1.00
10536;DHT22;5316;49.538;8.352;2023-05-27T07:33:58;16.10;1.00
10536;DHT22;5316;49.538;8.352;2023-05-27T07:36:31;16.10;1.00
10536;DHT22;5316;49.538;8.352;2023-05-27T07:38:58;16.20;1.00
10536;DHT22;5316;49.538;8.352;2023-05-27T07:41:30;16.20;1.00
10536;DHT22;5316;49.538;8.352;2023-05-27T07:44:00;16.40;1.00
10536;DHT22;5316;49.538;8.352;2023-05-27T07:46:29;16.60;1.00
10536;DHT22;5316;49.538;8.352;2023-05-27T07:49:06;16.50;1.00
10536;DHT22;5316;49.538;8.352;2023-05-27T07:51:38;16.60;1.00
10536;DHT22;5316;49.538;8.352;2023-05-27T07:54:10;16.60;1.00
10536;DHT22;5316;49.538;8.352;2023-05-27T07:56:45;16.70;1.00
10536;DHT22;5316;49.538;8.352;2023-05-27T07:59:12;16.70;1.00
10536;DHT22;5316;49.538;8.352;2023-05-27T08:01:43;16.80;1.00
10536;DHT22;5316;49.538;8.352;2023-05-27T08:04:12;16.80;1.00
10536;DHT22;5316;49.538;8.352;2023-05-27T08:06:39;17.00;1.00
10536;DHT22;5316;49.538;8.352;2023-05-27T08:09:08;17.00;1.00
10536;DHT22;5316;49.538;8.352;2023-05-27T08:11:45;17.00;1.00
10536;DHT22;5316;49.538;8.352;2023-05-27T08:14:12;17.20;1.00
10536;DHT22;5316;49.538;8.352;2023-05-27T08:16:41;17.20;1.00
10536;DHT22;5316;49.538;8.352;2023-05-27T08:19:18;17.40;1.00
10536;DHT22;5316;49.538;8.352;2023-05-27T08:21:59;17.30;1.00
10536;DHT22;5316;49.538;8.352;2023-05-27T08:24:42;17.40;1.00
10536;DHT22;5316;49.538;8.352;2023-05-27T08:30:19;17.50;1.00
10536;DHT22;5316;49.538;8.352;2023-05-27T08:32:51;17.60;99.90
10536;DHT22;5316;49.538;8.352;2023-05-27T08:35:43;17.70;99.90
10536;DHT22;5316;49.538;8.352;2023-05-27T08:38:16;17.80;99.90
10536;DHT22;5316;49.538;8.352;2023-05-27T08:40:52;17.80;99.90
10536;DHT22;5316;49.538;8.352;2023-05-27T08:43:29;17.90;99.90
10536;DHT22;5316;49.538;8.352;2023-05-27T08:46:02;18.00;99.90
10536;DHT22;5316;49.538;8.352;2023-05-27T08:48:37;18.10;99.90
10536;DHT22;5316;49.538;8.352;2023-05-27T08:51:10;18.20;99.90
10536;DHT22;5316;49.538;8.352;2023-05-27T08:53:47;18.30;99.90
10536;DHT22;5316;49.538;8.352;2023-05-27T08:56:20;18.40;99.90
10536;DHT22;5316;49.538;8.352;2023-05-27T08:58:58;18.50;99.90
10536;DHT22;5316;49.538;8.352;2023-05-27T09:01:42;18.60;99.90
10536;DHT22;5316;49.538;8.352;2023-05-27T09:04:23;18.70;99.90
10536;DHT22;5316;49.538;8.352;2023-05-27T09:06:55;18.90;99.90
10536;DHT22;5316;49.538;8.352;2023-05-27T09:09:34;19.00;99.90
10536;DHT22;5316;49.538;8.352;2023-05-27T09:12:04;19.00;99.90
10536;DHT22;5316;49.538;8.352;2023-05-27T09:14:50;19.10;99.90
10536;DHT22;5316;49.538;8.352;2023-05-27T09:17:29;19.20;99.90
10536;DHT22;5316;49.538;8.352;2023-05-27T09:20:01;19.40;99.90
10536;DHT22;5316;49.538;8.352;2023-05-27T09:22:34;19.40;99.90
10536;DHT22;5316;49.538;8.352;2023-05-27T09:25:10;19.50;99.90
10536;DHT22;5316;49.538;8.352;2023-05-27T09:27:48;19.50;99.90
10536;DHT22;5316;49.538;8.352;2023-05-27T09:30:40;19.60;98.20
10536;DHT22;5316;49.538;8.352;2023-05-27T09:33:15;19.70;98.50
10536;DHT22;5316;49.538;8.352;2023-05-27T09:36:25;19.80;91.80
10536;DHT22;5316;49.538;8.352;2023-05-27T09:39:10;19.90;95.50
10536;DHT22;5316;49.538;8.352;2023-05-27T09:41:52;20.10;88.40
10536;DHT22;5316;49.538;8.352;2023-05-27T09:44:35;20.20;78.40
10536;DHT22;5316;49.538;8.352;2023-05-27T09:47:26;20.20;62.80
10536;DHT22;5316;49.538;8.352;2023-05-27T09:50:05;20.30;56.50
10536;DHT22;5316;49.538;8.352;2023-05-27T09:52:44;20.30;58.30
10536;DHT22;5316;49.538;8.352;2023-05-27T09:55:28;20.30;46.00
10536;DHT22;5316;49.538;8.352;2023-05-27T09:58:07;20.30;32.10
10536;DHT22;5316;49.538;8.352;2023-05-27T10:00:56;20.30;51.30
10536;DHT22;5316;49.538;8.352;2023-05-27T10:03:53;20.40;71.90
10536;DHT22;5316;49.538;8.352;2023-05-27T10:06:23;20.60;71.50
10536;DHT22;5316;49.538;8.352;2023-05-27T10:08:53;20.50;55.70
10536;DHT22;5316;49.538;8.352;2023-05-27T10:11:24;20.60;54.30
10536;DHT22;5316;49.538;8.352;2023-05-27T10:13:53;20.60;66.40
10536;DHT22;5316;49.538;8.352;2023-05-27T10:16:25;20.80;61.10
10536;DHT22;5316;49.538;8.352;2023-05-27T10:18:56;20.70;57.10
10536;DHT22;5316;49.538;8.352;2023-05-27T10:21:27;20.80;72.70
10536;DHT22;5316;49.538;8.352;2023-05-27T10:23:56;20.80;30.60
10536;DHT22;5316;49.538;8.352;2023-05-27T10:26:33;20.80;36.10
10536;DHT22;5316;49.538;8.352;2023-05-27T10:29:11;20.90;56.60
10536;DHT22;5316;49.538;8.352;2023-05-27T10:31:45;20.90;30.40
10536;DHT22;5316;49.538;8.352;2023-05-27T10:34:18;21.00;30.00
10536;DHT22;5316;49.538;8.352;2023-05-27T10:36:58;21.20;30.00
10536;DHT22;5316;49.538;8.352;2023-05-27T10:39:38;21.20;20.30
10536;DHT22;5316;49.538;8.352;2023-05-27T10:42:07;21.30;16.80
10536;DHT22;5316;49.538;8.352;2023-05-27T10:44:35;21.30;2.50
10536;DHT22;5316;49.538;8.352;2023-05-27T10:47:10;21.30;7.00
10536;DHT22;5316;49.538;8.352;2023-05-27T10:49:39;21.40;1.60
10536;DHT22;5316;49.538;8.352;2023-05-27T10:52:13;21.30;1.00
10536;DHT22;5316;49.538;8.352;2023-05-27T10:54:52;21.40;13.20
10536;DHT22;5316;49.538;8.352;2023-05-27T10:57:20;21.50;8.60
10536;DHT22;5316;49.538;8.352;2023-05-27T10:59:52;21.60;1.00
10536;DHT22;5316;49.538;8.352;2023-05-27T11:02:22;21.80;9.60
10536;DHT22;5316;49.538;8.352;2023-05-27T11:04:53;22.00;1.00
10536;DHT22;5316;49.538;8.352;2023-05-27T11:07:23;22.10;1.00
10536;DHT22;5316;49.538;8.352;2023-05-27T11:09:55;22.10;1.00
10536;DHT22;5316;49.538;8.352;2023-05-27T11:12:24;22.20;1.00
10536;DHT22;5316;49.538;8.352;2023-05-27T11:15:03;22.30;1.00
10536;DHT22;5316;49.538;8.352;2023-05-27T11:17:33;22.30;1.00
10536;DHT22;5316;49.538;8.352;2023-05-27T11:20:02;22.30;1.00
10536;DHT22;5316;49.538;8.352;2023-05-27T11:22:32;22.40;1.00
10536;DHT22;5316;49.538;8.352;2023-05-27T11:25:00;22.30;1.00
10536;DHT22;5316;49.538;8.352;2023-05-27T11:27:32;22.20;1.00
10536;DHT22;5316;49.538;8.352;2023-05-27T11:30:06;22.10;1.00
10536;DHT22;5316;49.538;8.352;2023-05-27T11:32:39;22.10;1.00
10536;DHT22;5316;49.538;8.352;2023-05-27T11:35:14;22.30;1.00
10536;DHT22;5316;49.538;8.352;2023-05-27T11:37:49;22.40;1.00
10536;DHT22;5316;49.538;8.352;2023-05-27T11:40:21;22.50;1.00
10536;DHT22;5316;49.538;8.352;2023-05-27T11:42:51;22.60;1.00
10536;DHT22;5316;49.538;8.352;2023-05-27T11:45:20;22.60;1.00
10536;DHT22;5316;49.538;8.352;2023-05-27T11:47:51;22.70;1.00
10536;DHT22;5316;49.538;8.352;2023-05-27T11:50:56;22.90;1.00
10536;DHT22;5316;49.538;8.352;2023-05-27T11:53:28;23.10;1.00
10536;DHT22;5316;49.538;8.352;2023-05-27T11:56:07;23.30;1.00
10536;DHT22;5316;49.538;8.352;2023-05-27T11:58:49;23.40;1.00
10536;DHT22;5316;49.538;8.352;2023-05-27T12:01:20;23.60;1.00
10536;DHT22;5316;49.538;8.352;2023-05-27T12:04:02;23.60;1.00
10536;DHT22;5316;49.538;8.352;2023-05-27T12:06:48;23.70;1.00
10536;DHT22;5316;49.538;8.352;2023-05-27T12:09:28;23.80;1.00
10536;DHT22;5316;49.538;8.352;2023-05-27T12:12:13;23.90;1.00
10536;DHT22;5316;49.538;8.352;2023-05-27T12:14:48;24.00;1.00
10536;DHT22;5316;49.538;8.352;2023-05-27T12:17:35;24.10;1.00
10536;DHT22;5316;49.538;8.352;2023-05-27T12:20:18;24.20;1.00
10536;DHT22;5316;49.538;8.352;2023-05-27T12:22:58;24.30;1.00
10536;DHT22;5316;49.538;8.352;2023-05-27T12:25:35;24.30;1.00
10536;DHT22;5316;49.538;8.352;2023-05-27T12:28:06;24.40;1.00
10536;DHT22;5316;49.538;8.352;2023-05-27T12:30:40;24.50;1.00
10536;DHT22;5316;49.538;8.352;2023-05-27T12:33:14;24.50;1.00
10536;DHT22;5316;49.538;8.352;2023-05-27T12:35:47;24.50;1.00
10536;DHT22;5316;49.538;8.352;2023-05-27T12:38:33;24.50;1.00
10536;DHT22;5316;49.538;8.352;2023-05-27T12:44:01;24.80;1.00
10536;DHT22;5316;49.538;8.352;2023-05-27T12:46:28;25.00;1.00
10536;DHT22;5316;49.538;8.352;2023-05-27T12:49:11;25.20;1.00
10536;DHT22;5316;49.538;8.352;2023-05-27T12:51:38;25.40;1.00
10536;DHT22;5316;49.538;8.352;2023-05-27T12:54:09;25.60;1.00
10536;DHT22;5316;49.538;8.352;2023-05-27T12:56:37;25.80;1.00
10536;DHT22;5316;49.538;8.352;2023-05-27T12:59:06;25.90;1.00
10536;DHT22;5316;49.538;8.352;2023-05-27T13:01:35;26.00;1.00
10536;DHT22;5316;49.538;8.352;2023-05-27T13:04:06;26.10;1.00
10536;DHT22;5316;49.538;8.352;2023-05-27T13:06:36;26.20;1.00
10536;DHT22;5316;49.538;8.352;2023-05-27T13:09:14;26.40;1.00
10536;DHT22;5316;49.538;8.352;2023-05-27T13:11:46;26.50;1.00
10536;DHT22;5316;49.538;8.352;2023-05-27T13:14:15;26.70;1.00
10536;DHT22;5316;49.538;8.352;2023-05-27T13:16:43;26.90;1.00
10536;DHT22;5316;49.538;8.352;2023-05-27T13:19:12;27.10;1.00
10536;DHT22;5316;49.538;8.352;2023-05-27T13:21:39;27.20;1.00
10536;DHT22;5316;49.538;8.352;2023-05-27T13:24:21;27.40;1.00
10536;DHT22;5316;49.538;8.352;2023-05-27T13:26:55;27.50;1.00
10536;DHT22;5316;49.538;8.352;2023-05-27T13:29:22;27.70;1.00
10536;DHT22;5316;49.538;8.352;2023-05-27T13:31:52;27.80;1.00
10536;DHT22;5316;49.538;8.352;2023-05-27T13:34:21;27.80;1.00
10536;DHT22;5316;49.538;8.352;2023-05-27T13:36:49;27.90;1.00
10536;DHT22;5316;49.538;8.352;2023-05-27T13:39:23;27.80;1.00
10536;DHT22;5316;49.538;8.352;2023-05-27T13:41:53;27.80;1.00
10536;DHT22;5316;49.538;8.352;2023-05-27T13:44:30;28.00;1.00
10536;DHT22;5316;49.538;8.352;2023-05-27T13:47:08;28.20;1.00
10536;DHT22;5316;49.538;8.352;2023-05-27T13:49:45;28.60;1.00
10536;DHT22;5316;49.538;8.352;2023-05-27T13:52:18;28.90;1.00
10536;DHT22;5316;49.538;8.352;2023-05-27T13:55:10;29.10;1.00
10536;DHT22;5316;49.538;8.352;2023-05-27T13:57:43;29.40;1.00
10536;DHT22;5316;49.538;8.352;2023-05-27T14:00:22;29.80;1.00
10536;DHT22;5316;49.538;8.352;2023-05-27T14:03:11;30.10;1.00
10536;DHT22;5316;49.538;8.352;2023-05-27T14:06:09;30.50;1.00
10536;DHT22;5316;49.538;8.352;2023-05-27T14:08:59;30.90;1.00
10536;DHT22;5316;49.538;8.352;2023-05-27T14:15:00;31.80;1.00
10536;DHT22;5316;49.538;8.352;2023-05-27T14:17:41;32.10;1.00
10536;DHT22;5316;49.538;8.352;2023-05-27T14:20:24;32.30;1.00
10536;DHT22;5316;49.538;8.352;2023-05-27T14:22:58;32.40;1.00
10536;DHT22;5316;49.538;8.352;2023-05-27T14:25:35;32.50;1.00
10536;DHT22;5316;49.538;8.352;2023-05-27T14:28:17;32.60;1.00
10536;DHT22;5316;49.538;8.352;2023-05-27T14:30:49;32.80;99.90
10536;DHT22;5316;49.538;8.352;2023-05-27T14:33:35;32.90;99.90
10536;DHT22;5316;49.538;8.352;2023-05-27T14:36:06;33.00;99.90
10536;DHT22;5316;49.538;8.352;2023-05-27T14:38:40;33.20;99.90
10536;DHT22;5316;49.538;8.352;2023-05-27T14:41:20;33.30;99.90
10536;DHT22;5316;49.538;8.352;2023-05-27T14:44:02;33.70;99.90
10536;DHT22;5316;49.538;8.352;2023-05-27T14:47:34;33.90;99.90
10536;DHT22;5316;49.538;8.352;2023-05-27T14:50:01;34.20;99.90
10536;DHT22;5316;49.538;8.352;2023-05-27T14:53:03;34.50;99.90
10536;DHT22;5316;49.538;8.352;2023-05-27T14:55:58;35.00;99.90
10536;DHT22;5316;49.538;8.352;2023-05-27T14:58:41;35.10;99.90
10536;DHT22;5316;49.538;8.352;2023-05-27T15:04:59;35.30;99.90
10536;DHT22;5316;49.538;8.352;2023-05-27T15:11:23;35.30;99.90
10536;DHT22;5316;49.538;8.352;2023-05-27T15:14:35;35.80;99.90
10536;DHT22;5316;49.538;8.352;2023-05-27T15:17:15;35.80;99.90
10536;DHT22;5316;49.538;8.352;2023-05-27T15:20:23;35.50;99.90
10536;DHT22;5316;49.538;8.352;2023-05-27T15:23:16;35.30;99.90
10536;DHT22;5316;49.538;8.352;2023-05-27T15:26:25;35.50;99.90
10536;DHT22;5316;49.538;8.352;2023-05-27T15:29:31;35.70;99.90
10536;DHT22;5316;49.538;8.352;2023-05-27T15:32:29;36.00;99.90
10536;DHT22;5316;49.538;8.352;2023-05-27T15:38:44;36.10;99.90
10536;DHT22;5316;49.538;8.352;2023-05-27T15:41:26;36.40;99.90
10536;DHT22;5316;49.538;8.352;2023-05-27T15:44:18;36.50;99.90
10536;DHT22;5316;49.538;8.352;2023-05-27T15:47:04;36.60;99.90
10536;DHT22;5316;49.538;8.352;2023-05-27T15:49:37;36.40;99.90
10536;DHT22;5316;49.538;8.352;2023-05-27T15:52:22;36.20;1.00
10536;DHT22;5316;49.538;8.352;2023-05-27T15:55:11;36.00;1.00
10536;DHT22;5316;49.538;8.352;2023-05-27T15:57:55;36.40;1.00
10536;DHT22;5316;49.538;8.352;2023-05-27T16:00:56;36.30;1.00
10536;DHT22;5316;49.538;8.352;2023-05-27T16:04:13;36.50;1.00
10536;DHT22;5316;49.538;8.352;2023-05-27T16:07:21;36.60;1.00
10536;DHT22;5316;49.538;8.352;2023-05-27T16:11:09;37.00;1.00
10536;DHT22;5316;49.538;8.352;2023-05-27T16:16:58;36.90;1.00
10536;DHT22;5316;49.538;8.352;2023-05-27T16:20:13;36.60;1.00
10536;DHT22;5316;49.538;8.352;2023-05-27T16:23:13;36.70;1.00
10536;DHT22;5316;49.538;8.352;2023-05-27T16:29:39;36.50;1.00
10536;DHT22;5316;49.538;8.352;2023-05-27T16:32:14;36.60;1.00
10536;DHT22;5316;49.538;8.352;2023-05-27T16:35:01;36.70;1.00
10536;DHT22;5316;49.538;8.352;2023-05-27T16:37:54;36.70;1.00
10536;DHT22;5316;49.538;8.352;2023-05-27T16:43:41;36.00;1.00
10536;DHT22;5316;49.538;8.352;2023-05-27T16:46:23;36.20;1.00
10536;DHT22;5316;49.538;8.352;2023-05-27T16:50:23;36.20;1.00
10536;DHT22;5316;49.538;8.352;2023-05-27T16:52:45;36.30;1.00
10536;DHT22;5316;49.538;8.352;2023-05-27T17:02:02;35.80;1.00
10536;DHT22;5316;49.538;8.352;2023-05-27T17:04:48;35.90;1.00
10536;DHT22;5316;49.538;8.352;2023-05-27T17:08:01;36.00;1.00
10536;DHT22;5316;49.538;8.352;2023-05-27T17:11:06;35.70;1.00
10536;DHT22;5316;49.538;8.352;2023-05-27T17:13:45;35.50;1.00
10536;DHT22;5316;49.538;8.352;2023-05-27T17:16:37;35.30;1.00
10536;DHT22;5316;49.538;8.352;2023-05-27T17:19:25;35.10;1.00
10536;DHT22;5316;49.538;8.352;2023-05-27T17:22:12;35.00;1.00
10536;DHT22;5316;49.538;8.352;2023-05-27T17:25:06;34.90;1.00
10536;DHT22;5316;49.538;8.352;2023-05-27T17:28:08;34.90;1.00
10536;DHT22;5316;49.538;8.352;2023-05-27T17:30:52;34.70;1.00
10536;DHT22;5316;49.538;8.352;2023-05-27T17:33:56;34.60;1.00
10536;DHT22;5316;49.538;8.352;2023-05-27T17:36:37;34.40;1.00
10536;DHT22;5316;49.538;8.352;2023-05-27T17:39:27;34.20;1.00
10536;DHT22;5316;49.538;8.352;2023-05-27T17:42:03;34.00;1.00
10536;DHT22;5316;49.538;8.352;2023-05-27T17:50:31;33.60;1.00
10536;DHT22;5316;49.538;8.352;2023-05-27T17:53:17;33.30;1.00
10536;DHT22;5316;49.538;8.352;2023-05-27T17:55:55;32.90;1.00
10536;DHT22;5316;49.538;8.352;2023-05-27T17:58:43;32.80;1.00
10536;DHT22;5316;49.538;8.352;2023-05-27T18:01:21;32.70;1.00
10536;DHT22;5316;49.538;8.352;2023-05-27T18:04:05;32.60;1.00
10536;DHT22;5316;49.538;8.352;2023-05-27T18:06:34;32.20;1.00